Wetterdaten: Woche 02.08.10 - 08.08.10 (KW31)
Datum Zeit Temp. A. Feuchte A. Luftdruck Regen Wind Richtung Taupunkt Windchill Windben
02.08.2010 00:00 20,5 C 71 % 1014,5 hPa 0,0 l/m 0,0 km/h S-SO 15,1 C 20,5 C 0,0 km/h
02.08.2010 01:00 19,9 C 73 % 1014,6 hPa 0,0 l/m 0,0 km/h N-NO 14,9 C 19,9 C 0,0 km/h
02.08.2010 02:00 17,9 C 83 % 1014,3 hPa 0,0 l/m 0,0 km/h N-NO 15,0 C 17,9 C 0,0 km/h
02.08.2010 03:00 17,4 C 86 % 1014,3 hPa 0,0 l/m 1,9 km/h N-NO 15,0 C 17,4 C 1,1 km/h
02.08.2010 04:00 16,7 C 88 % 1014,0 hPa 0,0 l/m 1,9 km/h S-SO 14,7 C 16,7 C 1,1 km/h
02.08.2010 05:00 16,9 C 88 % 1014,1 hPa 0,0 l/m 0,0 km/h N-NO 14,9 C 16,9 C 0,0 km/h
02.08.2010 06:00 16,9 C 88 % 1014,2 hPa 0,0 l/m 0,0 km/h O 14,9 C 16,9 C 0,0 km/h
02.08.2010 07:00 17,6 C 87 % 1014,0 hPa 0,0 l/m 0,0 km/h N 15,4 C 17,6 C 0,0 km/h
02.08.2010 08:00 21,8 C 77 % 1014,3 hPa 0,0 l/m 0,0 km/h SW 17,6 C 21,8 C 0,0 km/h
02.08.2010 09:00 20,6 C 78 % 1014,5 hPa 0,0 l/m 0,0 km/h W 16,6 C 20,6 C 0,0 km/h
02.08.2010 10:00 19,6 C 84 % 1014,4 hPa 0,7 l/m 0,0 km/h SW 16,8 C 19,6 C 0,0 km/h
02.08.2010 11:00 19,2 C 87 % 1014,6 hPa 0,4 l/m 0,0 km/h N-NO 17,0 C 19,2 C 0,0 km/h
02.08.2010 12:00 22,4 C 81 % 1014,1 hPa 0,4 l/m 0,0 km/h W-SW 19,0 C 22,4 C 0,0 km/h
02.08.2010 13:00 24,8 C 69 % 1013,8 hPa 0,0 l/m 10,4 km/h NW 18,7 C 23,9 C 5,8 km/h
02.08.2010 14:00 23,9 C 67 % 1013,8 hPa 0,0 l/m 4,5 km/h N-NO 17,4 C 23,9 C 2,5 km/h
02.08.2010 15:00 20,8 C 77 % 1014,2 hPa 0,0 l/m 1,9 km/h NO 16,6 C 20,8 C 1,1 km/h
02.08.2010 16:00 20,9 C 81 % 1013,6 hPa 0,4 l/m 0,0 km/h N-NO 17,5 C 20,9 C 0,0 km/h
02.08.2010 17:00 19,1 C 86 % 1013,7 hPa 1,4 l/m 1,9 km/h S-SO 16,7 C 19,1 C 1,1 km/h
02.08.2010 18:00 18,1 C 91 % 1013,6 hPa 5,3 l/m 0,0 km/h SO 16,6 C 18,1 C 0,0 km/h
02.08.2010 19:00 18,5 C 91 % 1013,5 hPa 0,7 l/m 0,0 km/h S-SW 17,0 C 18,5 C 0,0 km/h
02.08.2010 20:00 17,8 C 89 % 1013,6 hPa 0,0 l/m 0,0 km/h SO 16,0 C 17,8 C 0,0 km/h
02.08.2010 21:00 16,8 C 91 % 1013,8 hPa 0,0 l/m 0,0 km/h SO 15,3 C 16,8 C 0,0 km/h
02.08.2010 22:00 16,2 C 93 % 1013,9 hPa 0,0 l/m 0,0 km/h SO 15,1 C 16,2 C 0,0 km/h
02.08.2010 23:00 15,4 C 93 % 1013,9 hPa 0,0 l/m 0,0 km/h SO 14,3 C 15,4 C 0,0 km/h
03.08.2010 00:00 15,4 C 94 % 1013,9 hPa 0,0 l/m 0,0 km/h SO 14,4 C 15,4 C 0,0 km/h
03.08.2010 01:00 16,0 C 94 % 1014,1 hPa 0,0 l/m 0,0 km/h SO 15,0 C 16,0 C 0,0 km/h
03.08.2010 02:00 16,2 C 94 % 1014,0 hPa 0,0 l/m 0,0 km/h SO 15,2 C 16,2 C 0,0 km/h
03.08.2010 03:00 16,1 C 95 % 1014,0 hPa 1,1 l/m 0,0 km/h SO 15,3 C 16,1 C 0,0 km/h
03.08.2010 04:00 15,0 C 94 % 1013,5 hPa 0,4 l/m 0,0 km/h SO 14,0 C 15,0 C 0,0 km/h
03.08.2010 05:00 14,8 C 94 % 1013,9 hPa 0,0 l/m 0,0 km/h N-NO 13,8 C 14,8 C 0,0 km/h
03.08.2010 06:00 14,6 C 94 % 1014,1 hPa 0,0 l/m 0,0 km/h N-NO 13,6 C 14,6 C 0,0 km/h
03.08.2010 07:00 15,8 C 95 % 1014,5 hPa 0,0 l/m 0,0 km/h SO 15,0 C 15,8 C 0,0 km/h
03.08.2010 08:00 17,8 C 92 % 1014,9 hPa 0,0 l/m 0,0 km/h W 16,5 C 17,8 C 0,0 km/h
03.08.2010 09:00 19,9 C 82 % 1015,4 hPa 0,0 l/m 0,0 km/h N-NO 16,7 C 19,9 C 0,0 km/h
03.08.2010 10:00 22,0 C 66 % 1015,4 hPa 0,0 l/m 0,0 km/h W-SW 15,3 C 22,0 C 0,0 km/h
03.08.2010 11:00 23,5 C 68 % 1015,1 hPa 0,0 l/m 3,2 km/h N-NO 17,2 C 23,5 C 1,8 km/h
03.08.2010 12:00 23,2 C 62 % 1015,0 hPa 0,0 l/m 0,0 km/h N-NO 15,5 C 23,2 C 0,0 km/h
03.08.2010 13:00 22,9 C 55 % 1014,7 hPa 0,0 l/m 0,0 km/h O 13,4 C 22,9 C 0,0 km/h
03.08.2010 14:00 25,8 C 52 % 1014,6 hPa 0,0 l/m 0,0 km/h N-NO 15,2 C 25,8 C 0,0 km/h
03.08.2010 15:00 25,1 C 49 % 1014,4 hPa 0,0 l/m 0,0 km/h N-NO 13,6 C 25,1 C 0,0 km/h
03.08.2010 16:00 23,2 C 50 % 1014,3 hPa 0,0 l/m 0,0 km/h W-NW 12,2 C 23,2 C 0,0 km/h
03.08.2010 17:00 29,8 C 38 % 1014,5 hPa 0,0 l/m 0,0 km/h NO 13,9 C 29,8 C 0,0 km/h
03.08.2010 18:00 29,1 C 37 % 1014,1 hPa 0,0 l/m 0,0 km/h W 12,9 C 29,1 C 0,0 km/h
03.08.2010 19:00 26,5 C 41 % 1014,3 hPa 0,0 l/m 0,0 km/h O-NO 12,2 C 26,5 C 0,0 km/h
03.08.2010 20:00 18,9 C 67 % 1014,4 hPa 0,0 l/m 0,0 km/h SO 12,6 C 18,9 C 0,0 km/h
03.08.2010 21:00 15,6 C 79 % 1014,5 hPa 0,0 l/m 0,0 km/h O-SO 12,0 C 15,6 C 0,0 km/h
03.08.2010 22:00 13,9 C 84 % 1015,0 hPa 0,0 l/m 0,0 km/h O-NO 11,2 C 13,9 C 0,0 km/h
03.08.2010 23:00 13,3 C 86 % 1015,2 hPa 0,0 l/m 0,0 km/h O-SO 11,0 C 13,3 C 0,0 km/h
04.08.2010 00:00 12,7 C 89 % 1014,5 hPa 0,0 l/m 0,0 km/h NO 10,9 C 12,7 C 0,0 km/h
04.08.2010 01:00 12,1 C 90 % 1014,4 hPa 0,0 l/m 0,0 km/h SO 10,5 C 12,1 C 0,0 km/h
04.08.2010 02:00 11,5 C 90 % 1014,0 hPa 0,0 l/m 0,0 km/h NO 9,9 C 11,5 C 0,0 km/h
04.08.2010 03:00 11,2 C 91 % 1013,9 hPa 0,0 l/m 0,0 km/h O-SO 9,8 C 11,2 C 0,0 km/h
04.08.2010 04:00 10,9 C 92 % 1013,1 hPa 0,0 l/m 0,0 km/h O-NO 9,7 C 10,9 C 0,0 km/h
04.08.2010 05:00 10,6 C 93 % 1013,1 hPa 0,0 l/m 0,0 km/h SO 9,5 C 10,6 C 0,0 km/h
04.08.2010 06:00 10,7 C 93 % 1012,9 hPa 0,0 l/m 0,0 km/h SO 9,6 C 10,7 C 0,0 km/h
04.08.2010 07:00 11,8 C 92 % 1013,1 hPa 0,0 l/m 0,0 km/h O-SO 10,5 C 11,8 C 0,0 km/h
04.08.2010 08:00 18,9 C 77 % 1012,8 hPa 0,0 l/m 0,0 km/h SW 14,8 C 18,9 C 0,0 km/h
04.08.2010 09:00 21,9 C 66 % 1012,4 hPa 0,0 l/m 0,0 km/h W 15,3 C 21,9 C 0,0 km/h
04.08.2010 10:00 23,4 C 56 % 1011,9 hPa 0,0 l/m 0,0 km/h W 14,1 C 23,4 C 0,0 km/h
04.08.2010 11:00 25,2 C 55 % 1011,7 hPa 0,0 l/m 4,5 km/h W-SW 15,5 C 25,2 C 2,5 km/h
04.08.2010 12:00 24,0 C 51 % 1010,8 hPa 0,0 l/m 1,3 km/h SW 13,2 C 24,0 C 0,7 km/h
04.08.2010 13:00 24,2 C 50 % 1010,2 hPa 0,0 l/m 24,0 km/h W 13,1 C 21,2 C 13,3 km/h
04.08.2010 14:00 25,2 C 47 % 1009,6 hPa 0,0 l/m 0,0 km/h NW 13,1 C 25,2 C 0,0 km/h
04.08.2010 15:00 27,3 C 42 % 1008,9 hPa 0,0 l/m 0,0 km/h SW 13,2 C 27,3 C 0,0 km/h
04.08.2010 16:00 29,1 C 37 % 1008,8 hPa 0,0 l/m 17,5 km/h W-SW 12,9 C 28,1 C 9,7 km/h
04.08.2010 17:00 26,8 C 40 % 1008,1 hPa 0,0 l/m 22,0 km/h W-SW 12,1 C 24,8 C 12,2 km/h
04.08.2010 18:00 23,1 C 49 % 1007,6 hPa 0,0 l/m 0,0 km/h SW 11,8 C 23,1 C 0,0 km/h
04.08.2010 19:00 22,7 C 53 % 1007,6 hPa 0,0 l/m 20,7 km/h S-SW 12,6 C 19,6 C 11,5 km/h
04.08.2010 20:00 20,5 C 60 % 1007,4 hPa 0,0 l/m 4,5 km/h W-SW 12,5 C 20,5 C 2,5 km/h
04.08.2010 21:00 19,9 C 60 % 1007,3 hPa 0,0 l/m 4,5 km/h O 11,9 C 19,9 C 2,5 km/h
04.08.2010 22:00 17,5 C 69 % 1007,3 hPa 0,0 l/m 0,0 km/h N-NO 11,7 C 17,5 C 0,0 km/h
04.08.2010 23:00 16,5 C 76 % 1006,8 hPa 0,0 l/m 0,0 km/h NO 12,3 C 16,5 C 0,0 km/h
05.08.2010 00:00 16,3 C 79 % 1006,6 hPa 0,0 l/m 0,0 km/h NO 12,6 C 16,3 C 0,0 km/h
05.08.2010 01:00 16,8 C 83 % 1006,6 hPa 0,0 l/m 0,0 km/h SO 13,9 C 16,8 C 0,0 km/h
05.08.2010 02:00 15,6 C 88 % 1006,6 hPa 0,4 l/m 9,1 km/h O-SO 13,6 C 14,2 C 5,0 km/h
05.08.2010 03:00 15,1 C 90 % 1006,0 hPa 1,1 l/m 0,0 km/h NO 13,5 C 15,1 C 0,0 km/h
05.08.2010 04:00 14,9 C 92 % 1005,5 hPa 0,0 l/m 0,0 km/h NO 13,6 C 14,9 C 0,0 km/h
05.08.2010 05:00 15,0 C 92 % 1005,2 hPa 0,0 l/m 0,0 km/h O-SO 13,7 C 15,0 C 0,0 km/h
05.08.2010 06:00 14,1 C 91 % 1005,4 hPa 1,1 l/m 0,0 km/h SO 12,7 C 14,1 C 0,0 km/h
05.08.2010 07:00 14,5 C 92 % 1006,1 hPa 0,0 l/m 0,0 km/h N-NO 13,2 C 14,5 C 0,0 km/h
05.08.2010 08:00 14,6 C 92 % 1006,5 hPa 0,0 l/m 0,0 km/h S 13,3 C 14,6 C 0,0 km/h
05.08.2010 09:00 14,9 C 92 % 1007,0 hPa 1,4 l/m 1,9 km/h SW 13,6 C 14,9 C 1,1 km/h
05.08.2010 10:00 15,8 C 91 % 1007,3 hPa 0,0 l/m 12,3 km/h SW 14,3 C 13,1 C 6,8 km/h
05.08.2010 11:00 16,2 C 88 % 1007,5 hPa 0,0 l/m 21,4 km/h SW 14,2 C 11,0 C 11,9 km/h
05.08.2010 12:00 17,1 C 86 % 1007,6 hPa 0,0 l/m 11,0 km/h W 14,7 C 15,1 C 6,1 km/h
05.08.2010 13:00 18,3 C 81 % 1007,9 hPa 0,0 l/m 5,2 km/h SO 15,0 C 18,3 C 2,9 km/h
05.08.2010 14:00 16,1 C 88 % 1008,1 hPa 5,7 l/m 6,5 km/h O-SO 14,1 C 16,1 C 3,6 km/h
05.08.2010 15:00 21,3 C 75 % 1008,1 hPa 0,0 l/m 10,4 km/h N-NO 16,7 C 20,0 C 5,8 km/h
05.08.2010 16:00 16,5 C 80 % 1009,2 hPa 0,0 l/m 0,0 km/h O-SO 13,0 C 16,5 C 0,0 km/h
05.08.2010 17:00 18,7 C 77 % 1009,3 hPa 0,0 l/m 0,6 km/h SO 14,6 C 18,7 C 0,4 km/h
05.08.2010 18:00 17,6 C 79 % 1009,5 hPa 0,0 l/m 5,2 km/h S 13,9 C 17,6 C 2,9 km/h
05.08.2010 19:00 16,9 C 83 % 1010,0 hPa 0,0 l/m 2,6 km/h S-SO 14,0 C 16,9 C 1,4 km/h
05.08.2010 20:00 15,5 C 89 % 1010,8 hPa 0,7 l/m 0,0 km/h NO 13,7 C 15,5 C 0,0 km/h
05.08.2010 21:00 14,6 C 91 % 1011,3 hPa 0,0 l/m 0,0 km/h SO 13,1 C 14,6 C 0,0 km/h
05.08.2010 22:00 14,2 C 92 % 1012,3 hPa 0,0 l/m 0,0 km/h NO 12,9 C 14,2 C 0,0 km/h
05.08.2010 23:00 13,8 C 92 % 1012,5 hPa 0,0 l/m 0,0 km/h NO 12,5 C 13,8 C 0,0 km/h
06.08.2010 00:00 13,4 C 93 % 1013,1 hPa 0,0 l/m 0,0 km/h NO 12,3 C 13,4 C 0,0 km/h
06.08.2010 01:00 13,5 C 93 % 1013,2 hPa 0,0 l/m 0,0 km/h O-SO 12,4 C 13,5 C 0,0 km/h
06.08.2010 02:00 13,4 C 94 % 1013,5 hPa 0,0 l/m 0,0 km/h O-SO 12,5 C 13,4 C 0,0 km/h
06.08.2010 03:00 12,4 C 94 % 1013,5 hPa 0,0 l/m 0,0 km/h O 11,5 C 12,4 C 0,0 km/h
06.08.2010 04:00 11,4 C 94 % 1013,8 hPa 0,0 l/m 0,0 km/h NO 10,5 C 11,4 C 0,0 km/h
06.08.2010 05:00 10,9 C 94 % 1014,1 hPa 0,0 l/m 0,0 km/h NO 10,0 C 10,9 C 0,0 km/h
06.08.2010 06:00 10,6 C 94 % 1014,8 hPa 0,0 l/m 0,0 km/h SO 9,7 C 10,6 C 0,0 km/h
06.08.2010 07:00 11,8 C 94 % 1015,5 hPa 0,0 l/m 0,0 km/h SO 10,9 C 11,8 C 0,0 km/h
06.08.2010 08:00 16,0 C 94 % 1015,8 hPa 0,0 l/m 3,9 km/h N-NO 15,0 C 16,0 C 2,2 km/h
06.08.2010 09:00 22,4 C 62 % 1016,0 hPa 0,0 l/m 0,0 km/h NW 14,8 C 22,4 C 0,0 km/h
06.08.2010 10:00 21,4 C 58 % 1016,3 hPa 0,0 l/m 0,0 km/h N 12,8 C 21,4 C 0,0 km/h
06.08.2010 11:00 21,3 C 58 % 1016,3 hPa 0,0 l/m 0,0 km/h N-NW 12,7 C 21,3 C 0,0 km/h
06.08.2010 12:00 23,8 C 51 % 1016,2 hPa 0,0 l/m 0,0 km/h NW 13,0 C 23,8 C 0,0 km/h
06.08.2010 13:00 24,3 C 47 % 1016,1 hPa 0,0 l/m 0,0 km/h NO 12,3 C 24,3 C 0,0 km/h
06.08.2010 14:00 24,2 C 44 % 1016,0 hPa 0,0 l/m 0,0 km/h N 11,2 C 24,2 C 0,0 km/h
06.08.2010 15:00 26,3 C 41 % 1015,8 hPa 0,0 l/m 0,0 km/h N 12,0 C 26,3 C 0,0 km/h
06.08.2010 16:00 28,6 C 36 % 1015,8 hPa 0,0 l/m 7,1 km/h W 12,0 C 28,5 C 4,0 km/h
06.08.2010 17:00 30,8 C 31 % 1015,8 hPa 0,0 l/m 1,9 km/h W 11,7 C 30,8 C 1,1 km/h
06.08.2010 18:00 28,1 C 33 % 1016,1 hPa 0,0 l/m 0,0 km/h W 10,3 C 28,1 C 0,0 km/h
06.08.2010 19:00 24,1 C 39 % 1016,4 hPa 0,0 l/m 0,0 km/h W 9,3 C 24,1 C 0,0 km/h
06.08.2010 20:00 18,2 C 56 % 1016,6 hPa 0,0 l/m 0,0 km/h O-NO 9,3 C 18,2 C 0,0 km/h
06.08.2010 21:00 14,5 C 74 % 1017,4 hPa 0,0 l/m 0,0 km/h NO 9,9 C 14,5 C 0,0 km/h
06.08.2010 22:00 12,8 C 80 % 1017,9 hPa 0,0 l/m 0,0 km/h SO 9,4 C 12,8 C 0,0 km/h
06.08.2010 23:00 12,0 C 84 % 1018,0 hPa 0,0 l/m 0,0 km/h O-SO 9,4 C 12,0 C 0,0 km/h
07.08.2010 00:00 11,5 C 86 % 1018,0 hPa 0,0 l/m 0,0 km/h O-NO 9,2 C 11,5 C 0,0 km/h
07.08.2010 01:00 10,9 C 87 % 1017,9 hPa 0,0 l/m 0,0 km/h N-NO 8,8 C 10,9 C 0,0 km/h
07.08.2010 02:00 10,5 C 89 % 1018,0 hPa 0,0 l/m 0,0 km/h N 8,8 C 10,5 C 0,0 km/h
07.08.2010 03:00 10,2 C 90 % 1018,1 hPa 0,0 l/m 0,0 km/h SO 8,6 C 10,2 C 0,0 km/h
07.08.2010 04:00 9,6 C 90 % 1017,9 hPa 0,0 l/m 0,0 km/h NO 8,0 C 9,6 C 0,0 km/h
07.08.2010 05:00 9,1 C 91 % 1018,2 hPa 0,0 l/m 0,0 km/h SO 7,7 C 9,1 C 0,0 km/h
07.08.2010 06:00 8,6 C 92 % 1018,4 hPa 0,0 l/m 0,0 km/h O-NO 7,4 C 8,6 C 0,0 km/h
07.08.2010 07:00 9,7 C 92 % 1018,3 hPa 0,0 l/m 0,0 km/h SO 8,5 C 9,7 C 0,0 km/h
07.08.2010 08:00 17,3 C 75 % 1018,5 hPa 0,0 l/m 5,2 km/h W 12,8 C 17,3 C 2,9 km/h
07.08.2010 09:00 22,7 C 56 % 1018,7 hPa 0,0 l/m 0,0 km/h W-SW 13,5 C 22,7 C 0,0 km/h
07.08.2010 10:00 24,7 C 49 % 1018,4 hPa 0,0 l/m 2,6 km/h W 13,3 C 24,7 C 1,4 km/h
07.08.2010 11:00 26,2 C 43 % 1018,2 hPa 0,0 l/m 8,4 km/h N-NO 12,6 C 25,8 C 4,7 km/h
07.08.2010 12:00 25,7 C 44 % 1017,9 hPa 0,0 l/m 0,0 km/h N 12,5 C 25,7 C 0,0 km/h
07.08.2010 13:00 25,8 C 42 % 1017,5 hPa 0,0 l/m 4,5 km/h W 11,9 C 25,8 C 2,5 km/h
07.08.2010 14:00 26,5 C 37 % 1017,5 hPa 0,0 l/m 3,2 km/h S-SW 10,6 C 26,5 C 1,8 km/h
07.08.2010 15:00 28,4 C 38 % 1016,9 hPa 0,0 l/m 24,0 km/h SW 12,7 C 26,8 C 13,3 km/h
07.08.2010 16:00 31,8 C 31 % 1016,5 hPa 0,0 l/m 3,2 km/h NW 12,6 C 31,8 C 1,8 km/h
07.08.2010 17:00 32,1 C 28 % 1016,4 hPa 0,0 l/m 8,4 km/h S 11,3 C 32,0 C 4,7 km/h
07.08.2010 18:00 31,6 C 30 % 1016,2 hPa 0,0 l/m 5,8 km/h W 11,9 C 31,6 C 3,2 km/h
07.08.2010 19:00 28,1 C 34 % 1016,2 hPa 0,0 l/m 0,0 km/h O-NO 10,7 C 28,1 C 0,0 km/h
07.08.2010 20:00 20,4 C 56 % 1016,2 hPa 0,0 l/m 0,0 km/h NO 11,3 C 20,4 C 0,0 km/h
07.08.2010 21:00 16,9 C 67 % 1016,5 hPa 0,0 l/m 0,0 km/h SO 10,7 C 16,9 C 0,0 km/h
07.08.2010 22:00 15,9 C 75 % 1016,8 hPa 0,0 l/m 1,9 km/h N-NO 11,5 C 15,9 C 1,1 km/h
07.08.2010 23:00 15,3 C 76 % 1016,5 hPa 0,0 l/m 0,0 km/h O-SO 11,1 C 15,3 C 0,0 km/h
08.08.2010 00:00 15,2 C 78 % 1016,4 hPa 0,0 l/m 0,0 km/h O-SO 11,4 C 15,2 C 0,0 km/h
08.08.2010 01:00 15,1 C 78 % 1016,1 hPa 0,0 l/m 0,0 km/h SO 11,3 C 15,1 C 0,0 km/h
08.08.2010 02:00 15,4 C 78 % 1015,7 hPa 0,0 l/m 1,9 km/h SO 11,6 C 15,4 C 1,1 km/h
08.08.2010 03:00 15,0 C 80 % 1015,5 hPa 0,0 l/m 0,0 km/h O-NO 11,6 C 15,0 C 0,0 km/h
08.08.2010 04:00 15,3 C 80 % 1015,1 hPa 0,0 l/m 0,0 km/h N-NO 11,9 C 15,3 C 0,0 km/h
08.08.2010 05:00 14,9 C 83 % 1015,4 hPa 0,0 l/m 0,0 km/h SO 12,0 C 14,9 C 0,0 km/h
08.08.2010 06:00 14,9 C 87 % 1014,9 hPa 0,0 l/m 5,8 km/h SO 12,8 C 14,9 C 3,2 km/h
08.08.2010 07:00 15,6 C 87 % 1014,8 hPa 0,0 l/m 0,0 km/h SO 13,4 C 15,6 C 0,0 km/h
08.08.2010 08:00 20,0 C 75 % 1015,0 hPa 0,0 l/m 0,0 km/h NO 15,4 C 20,0 C 0,0 km/h
08.08.2010 09:00 22,5 C 73 % 1015,3 hPa 0,0 l/m 0,0 km/h NW 17,4 C 22,5 C 0,0 km/h
08.08.2010 10:00 22,1 C 66 % 1015,7 hPa 0,0 l/m 0,0 km/h W 15,4 C 22,1 C 0,0 km/h
08.08.2010 11:00 23,6 C 62 % 1015,9 hPa 0,0 l/m 0,0 km/h W 15,9 C 23,6 C 0,0 km/h
08.08.2010 12:00 26,3 C 50 % 1015,8 hPa 0,0 l/m 3,9 km/h N-NO 15,0 C 26,3 C 2,2 km/h
08.08.2010 13:00 20,7 C 70 % 1016,4 hPa 0,0 l/m 0,0 km/h NO 15,0 C 20,7 C 0,0 km/h
08.08.2010 14:00 22,3 C 73 % 1016,3 hPa 0,7 l/m 2,6 km/h SO 17,2 C 22,3 C 1,4 km/h
08.08.2010 15:00 22,0 C 69 % 1016,2 hPa 0,0 l/m 0,0 km/h NO 16,0 C 22,0 C 0,0 km/h
08.08.2010 16:00 23,0 C 62 % 1016,2 hPa 0,0 l/m 0,0 km/h S-SW 15,3 C 23,0 C 0,0 km/h
08.08.2010 17:00 28,3 C 49 % 1016,2 hPa 0,0 l/m 5,8 km/h NO 16,5 C 28,3 C 3,2 km/h
08.08.2010 18:00 24,9 C 53 % 1016,1 hPa 0,0 l/m 0,0 km/h O-NO 14,6 C 24,9 C 0,0 km/h
08.08.2010 19:00 22,9 C 59 % 1016,2 hPa 0,0 l/m 0,0 km/h N-NO 14,5 C 22,9 C 0,0 km/h
08.08.2010 20:00 19,7 C 69 % 1016,5 hPa 0,0 l/m 0,0 km/h O-NO 13,8 C 19,7 C 0,0 km/h
08.08.2010 21:00 16,4 C 80 % 1016,7 hPa 0,0 l/m 0,0 km/h O-NO 12,9 C 16,4 C 0,0 km/h
08.08.2010 22:00 15,1 C 87 % 1017,4 hPa 0,0 l/m 0,0 km/h SO 13,0 C 15,1 C 0,0 km/h
08.08.2010 23:00 13,9 C 89 % 1017,5 hPa 0,0 l/m 0,0 km/h SO 12,1 C 13,9 C 0,0 km/h
Min-Datum _ 07.08.10 07.08.10 05.08.10 - 02.08.10 - 07.08.10 07.08.10 02.08.10
_ Min-Zeit 06:30 17:30 05:30 - 00:30 - 06:30 06:30 00:30
Minimum _ 8,6 C 28 % 1005,2 hPa - 0,0 km/h - 7,4 C 8,6 C 0,0 km/h
Max-Datum _ 07.08.10 03.08.10 07.08.10 05.08.10 04.08.10 - 02.08.10 07.08.10 04.08.10
_ Max-Zeit 17:30 03:30 09:30 14:30 13:30 - 12:30 17:30 13:30
Maximum _ 32,1 C 95 % 1018,7 hPa 5,7 l/m 24,0 km/h
W
- 19,0 C 32,0 C 13,3 km/h
W
Durchschnitt _ 18,8 C 73 % 1013,8 hPa #21,7 l/m 1,9 km/h SO 13,2 C 18,6 C 1,0 km/h